Time;durP1;ratioP1;P1;durP2;ratioP2;P2;SDS_P1;SDS_P2;PMS_P1;PMS_P2;Temp;Humidity;BMP_temperature;BMP_pressure;BME280_temperature;BME280_humidity;BME280_pressure;Samples;Min_cycle;Max_cycle;Signal;HPM_P1;HPM_P2
2024/01/20 00:01:12;;;;;;;;;;;;;;;15.32;46.43;100484.25;5118725;28;1073;-36
2024/01/20 00:03:38;;;;;;;;;;;;;;;15.59;47.37;100493.81;5119321;28;856;-37
2024/01/20 00:06:03;;;;;;;;;;;;;;;16.44;46.62;100515.91;5118906;28;1053;-35
2024/01/20 00:08:29;;;;;;;;;;;;;;;15.61;47.60;100516.63;5119203;28;1105;-36
2024/01/20 00:10:54;;;;;;;;;;;;;;;16.24;47.66;100525.38;5117504;28;1061;-36
2024/01/20 00:13:20;;;;;;;;;;;;;;;15.82;47.59;100521.31;5098831;28;1061;-37
2024/01/20 00:15:45;;;;;;;;;;;;;;;15.51;47.45;100536.81;5113507;28;1972;-35
2024/01/20 00:18:11;;;;;;;;;;;;;;;15.36;47.65;100529.00;5111732;28;1228;-38
2024/01/20 00:20:37;;;;;;;;;;;;;;;16.78;46.26;100549.66;5110637;28;1042;-35
2024/01/20 00:23:03;;;;;;;;;;;;;;;15.62;47.48;100552.78;5095958;28;1047;-36
2024/01/20 00:25:29;;;;;;;;;;;;;;;15.47;46.66;100545.91;5118302;28;1120;-35
2024/01/20 00:27:54;;;;;;;;;;;;;;;16.36;47.30;100561.63;5102468;28;915;-36
2024/01/20 00:30:20;;;;;;;;;;;;;;;15.90;47.58;100548.13;5094980;28;1118;-36
2024/01/20 00:32:45;;;;;;;;;;;;;;;15.37;47.05;100557.19;5118400;28;1130;-35
2024/01/20 00:35:11;;;;;;;;;;;;;;;15.75;48.05;100551.88;5117524;28;1905;-37
2024/01/20 00:37:37;;;;;;;;;;;;;;;16.57;46.24;100539.69;5119192;28;1150;-36
2024/01/20 00:40:03;;;;;;;;;;;;;;;15.65;46.94;100552.56;5105479;28;1217;-36
2024/01/20 00:42:29;;;;;;;;;;;;;;;15.43;46.51;100553.28;5110528;28;1077;-36
2024/01/20 00:44:55;;;;;;;;;;;;;;;16.19;47.66;100565.53;5095319;28;1617;-37
2024/01/20 00:47:20;;;;;;;;;;;;;;;15.88;47.13;100557.16;5081081;28;1047;-35
2024/01/20 00:49:47;;;;;;;;;;;;;;;15.48;46.70;100580.28;5112411;28;1118;-38
2024/01/20 00:52:12;;;;;;;;;;;;;;;15.37;47.64;100575.75;5117723;28;991;-38
2024/01/20 00:54:38;;;;;;;;;;;;;;;16.22;46.85;100567.94;5098270;28;1133;-35
2024/01/20 00:57:04;;;;;;;;;;;;;;;15.52;47.50;100572.94;5111646;28;1968;-37
2024/01/20 00:59:29;;;;;;;;;;;;;;;15.27;46.40;100591.44;5091609;28;980;-35
2024/01/20 01:01:55;;;;;;;;;;;;;;;15.95;47.70;100600.81;5109220;28;1041;-36
2024/01/20 01:04:20;;;;;;;;;;;;;;;15.94;46.99;100606.25;5114255;28;1069;-35
2024/01/20 01:06:46;;;;;;;;;;;;;;;15.38;47.01;100617.19;5118297;28;1003;-36
2024/01/20 01:09:11;;;;;;;;;;;;;;;15.34;47.07;100620.16;5115798;28;1122;-37
2024/01/20 01:11:37;;;;;;;;;;;;;;;17.16;45.30;100630.06;5107585;28;1177;-36
2024/01/20 01:14:02;;;;;;;;;;;;;;;15.82;47.09;100635.38;5114563;28;1045;-36
2024/01/20 01:16:28;;;;;;;;;;;;;;;15.41;46.86;100640.81;5097623;28;1910;-36
2024/01/20 01:18:53;;;;;;;;;;;;;;;16.76;46.04;100631.25;5096822;28;1285;-36
2024/01/20 01:21:19;;;;;;;;;;;;;;;15.74;47.38;100632.41;5106943;28;1103;-37
2024/01/20 01:23:44;;;;;;;;;;;;;;;15.47;46.42;100631.59;5106404;28;1066;-36
2024/01/20 01:26:10;;;;;;;;;;;;;;;17.09;45.73;100618.19;5102669;28;1172;-36
2024/01/20 01:28:35;;;;;;;;;;;;;;;15.85;47.20;100621.03;5106629;28;947;-35
2024/01/20 01:31:01;;;;;;;;;;;;;;;15.46;47.25;100614.03;5117504;28;1014;-36
2024/01/20 01:33:26;;;;;;;;;;;;;;;15.25;46.62;100616.34;5117624;28;1597;-36
2024/01/20 01:35:52;;;;;;;;;;;;;;;15.93;47.28;100617.84;5090820;28;1982;-37
2024/01/20 01:38:17;;;;;;;;;;;;;;;15.96;47.07;100630.88;5108820;28;1225;-36
2024/01/20 01:40:43;;;;;;;;;;;;;;;15.71;48.14;100644.09;5112675;28;1083;-36
2024/01/20 01:43:08;;;;;;;;;;;;;;;17.56;44.81;100652.69;5117045;28;1120;-37
2024/01/20 01:45:34;;;;;;;;;;;;;;;16.03;47.33;100667.47;5116546;28;1050;-36
2024/01/20 01:47:59;;;;;;;;;;;;;;;15.55;47.20;100677.00;5117761;28;1018;-37
2024/01/20 01:50:25;;;;;;;;;;;;;;;15.44;46.11;100682.19;5104053;28;1050;-36
2024/01/20 01:52:50;;;;;;;;;;;;;;;16.20;46.90;100672.56;5116202;28;908;-37
2024/01/20 01:55:16;;;;;;;;;;;;;;;15.47;47.03;100673.16;5117187;28;1902;-35
2024/01/20 01:57:42;;;;;;;;;;;;;;;15.87;47.77;100680.13;5117294;28;1045;-36
2024/01/20 02:00:07;;;;;;;;;;;;;;;16.23;46.71;100680.28;5116698;28;1038;-36
2024/01/20 02:02:33;;;;;;;;;;;;;;;15.59;47.05;100676.78;5110108;28;1381;-36
2024/01/20 02:04:58;;;;;;;;;;;;;;;15.30;46.57;100677.84;5110572;28;969;-37
2024/01/20 02:07:24;;;;;;;;;;;;;;;16.44;46.37;100691.13;5117747;28;1060;-36
2024/01/20 02:09:49;;;;;;;;;;;;;;;15.59;46.97;100693.53;5098241;28;1117;-36
2024/01/20 02:12:15;;;;;;;;;;;;;;;15.25;46.98;100687.91;5103487;28;843;-37
2024/01/20 02:14:42;;;;;;;;;;;;;;;16.42;46.63;100685.09;5116523;28;1389;-36
2024/01/20 02:17:07;;;;;;;;;;;;;;;16.31;46.77;100679.72;5098361;28;909;-35
2024/01/20 02:19:37;;;;;;;;;;;;;;;15.63;48.04;100678.25;5103527;28;1137;-36
2024/01/20 02:22:15;;;;;;;;;;;;;;;17.47;44.69;100672.00;5117237;28;1061;-36
2024/01/20 02:24:48;;;;;;;;;;;;;;;15.99;47.12;100691.69;5116366;28;1062;-35
2024/01/20 02:27:14;;;;;;;;;;;;;;;15.46;47.26;100709.44;5106797;28;1178;-36
2024/01/20 02:29:40;;;;;;;;;;;;;;;15.40;46.33;100710.72;5112992;28;852;-37
2024/01/20 02:32:05;;;;;;;;;;;;;;;16.56;46.64;100717.75;5116861;28;1017;-35
2024/01/20 02:34:31;;;;;;;;;;;;;;;15.82;47.29;100738.81;5102537;28;1191;-36
2024/01/20 02:36:57;;;;;;;;;;;;;;;15.47;46.89;100772.13;5116623;28;1922;-37
2024/01/20 02:39:22;;;;;;;;;;;;;;;15.31;45.76;100769.66;5103302;28;1061;-35
2024/01/20 02:41:48;;;;;;;;;;;;;;;16.68;45.79;100785.91;5105912;28;844;-36
2024/01/20 02:44:13;;;;;;;;;;;;;;;15.63;46.96;100794.94;5113136;28;1063;-35
2024/01/20 02:46:39;;;;;;;;;;;;;;;17.20;45.63;100798.16;5096414;28;1169;-35
2024/01/20 02:49:04;;;;;;;;;;;;;;;16.66;45.99;100803.75;5109964;28;1159;-35
2024/01/20 02:51:30;;;;;;;;;;;;;;;15.88;46.79;100801.22;5116528;28;1037;-35
2024/01/20 02:53:57;;;;;;;;;;;;;;;15.61;46.46;100807.44;5085777;28;984;-36
2024/01/20 02:56:24;;;;;;;;;;;;;;;15.37;47.28;100769.25;5105876;28;1917;-36
2024/01/20 02:58:50;;;;;;;;;;;;;;;15.66;47.19;100814.13;5112479;28;1121;-36
2024/01/20 03:01:15;;;;;;;;;;;;;;;15.50;46.53;100843.47;5106149;28;1137;-36
2024/01/20 03:03:41;;;;;;;;;;;;;;;15.86;47.11;100842.91;5113054;28;1054;-35
2024/01/20 03:06:06;;;;;;;;;;;;;;;16.07;46.89;100853.00;5106099;28;1106;-37
2024/01/20 03:08:32;;;;;;;;;;;;;;;15.41;47.15;100852.06;5112623;28;1033;-35
2024/01/20 03:10:57;;;;;;;;;;;;;;;15.32;46.33;100869.41;5106236;28;1166;-35
2024/01/20 03:13:23;;;;;;;;;;;;;;;16.06;46.96;100867.25;5116109;28;1123;-37
2024/01/20 03:15:49;;;;;;;;;;;;;;;16.59;46.08;100853.81;5115902;28;2000;-34
2024/01/20 03:18:14;;;;;;;;;;;;;;;15.61;47.27;100847.22;5116002;28;1062;-36
2024/01/20 03:20:40;;;;;;;;;;;;;;;16.48;47.00;100851.91;5106748;28;1106;-35
2024/01/20 03:23:06;;;;;;;;;;;;;;;15.92;47.11;100847.78;5112557;28;1141;-35
2024/01/20 03:25:31;;;;;;;;;;;;;;;15.54;46.36;100838.84;5116559;28;1104;-35
2024/01/20 03:27:57;;;;;;;;;;;;;;;17.04;45.64;100835.59;5086025;28;1114;-35
2024/01/20 03:30:23;;;;;;;;;;;;;;;15.84;47.00;100845.66;5105867;28;1050;-35
2024/01/20 03:32:48;;;;;;;;;;;;;;;16.09;47.54;100856.41;5102725;28;1234;-35
2024/01/20 03:35:14;;;;;;;;;;;;;;;16.48;46.38;100853.75;5115857;28;1913;-35
2024/01/20 03:37:39;;;;;;;;;;;;;;;15.67;47.09;100842.38;5115804;28;1065;-35
2024/01/20 03:40:05;;;;;;;;;;;;;;;17.25;45.53;100846.47;5106119;28;1180;-36
2024/01/20 03:42:31;;;;;;;;;;;;;;;16.36;46.49;100839.53;5085851;28;1047;-35
2024/01/20 03:44:56;;;;;;;;;;;;;;;15.76;46.91;100840.91;5106236;28;1074;-36
2024/01/20 03:47:22;;;;;;;;;;;;;;;15.66;45.87;100835.34;5112303;28;1098;-36
2024/01/20 03:49:47;;;;;;;;;;;;;;;15.61;46.22;100839.28;5095994;28;1130;-36
2024/01/20 03:52:13;;;;;;;;;;;;;;;15.99;46.71;100841.16;5093805;28;1070;-35
2024/01/20 03:54:39;;;;;;;;;;;;;;;15.56;47.24;100842.25;5115699;28;1053;-36
2024/01/20 03:57:05;;;;;;;;;;;;;;;17.52;44.81;100852.53;5101756;28;1979;-36
2024/01/20 03:59:30;;;;;;;;;;;;;;;16.13;46.92;100844.66;5115375;28;1073;-36
2024/01/20 04:01:56;;;;;;;;;;;;;;;15.70;46.63;100840.47;5114244;28;1065;-36
2024/01/20 04:04:21;;;;;;;;;;;;;;;15.38;46.29;100855.75;5095491;28;1118;-37
2024/01/20 04:06:47;;;;;;;;;;;;;;;15.39;45.18;100865.44;5110364;28;1015;-38
2024/01/20 04:09:12;;;;;;;;;;;;;;;17.05;45.84;100882.50;5115425;28;1089;-36
2024/01/20 04:11:38;;;;;;;;;;;;;;;16.16;46.81;100887.72;5104371;28;1228;-36
2024/01/20 04:14:04;;;;;;;;;;;;;;;15.69;46.62;100883.81;5119430;28;1209;-37
2024/01/20 04:16:29;;;;;;;;;;;;;;;15.38;46.35;100907.94;5105386;28;1905;-34
2024/01/20 04:18:55;;;;;;;;;;;;;;;16.99;45.72;100924.50;5111044;28;1177;-36
2024/01/20 04:21:21;;;;;;;;;;;;;;;15.76;47.29;100925.78;5113903;28;1069;-35
2024/01/20 04:23:47;;;;;;;;;;;;;;;15.44;46.88;100936.69;5119168;28;1112;-35
2024/01/20 04:26:12;;;;;;;;;;;;;;;15.93;47.23;100955.63;5107778;28;1069;-37
2024/01/20 04:28:38;;;;;;;;;;;;;;;15.64;47.07;100964.56;5094511;28;1090;-37
2024/01/20 04:31:03;;;;;;;;;;;;;;;15.35;46.48;100959.34;5097187;28;1197;-35
2024/01/20 04:33:30;;;;;;;;;;;;;;;16.32;46.54;100973.41;5112323;28;1193;-40
2024/01/20 04:35:56;;;;;;;;;;;;;;;15.95;46.42;100982.88;5098661;28;1975;-36
2024/01/20 04:38:21;;;;;;;;;;;;;;;15.40;46.68;100980.25;5110454;28;1018;-36
2024/01/20 04:40:47;;;;;;;;;;;;;;;16.05;46.73;100985.81;5094774;28;1095;-37
2024/01/20 04:43:12;;;;;;;;;;;;;;;16.11;46.54;100987.22;5118359;28;1179;-37
2024/01/20 04:45:38;;;;;;;;;;;;;;;15.97;47.19;100986.28;5102372;28;1193;-40
2024/01/20 04:48:04;;;;;;;;;;;;;;;17.69;44.04;101010.84;5107046;28;1101;-40
2024/01/20 04:50:29;;;;;;;;;;;;;;;16.09;46.59;101005.88;5098308;28;1069;-37
2024/01/20 04:52:55;;;;;;;;;;;;;;;15.66;46.64;101015.69;5098159;28;1045;-37
2024/01/20 04:55:20;;;;;;;;;;;;;;;15.41;45.81;101022.56;5109854;28;2437;-37
2024/01/20 04:57:46;;;;;;;;;;;;;;;15.38;46.10;101019.28;5077556;28;1505;-37
2024/01/20 05:00:12;;;;;;;;;;;;;;;16.72;45.94;101026.44;5097050;28;1098;-40
2024/01/20 05:02:37;;;;;;;;;;;;;;;15.70;46.83;101028.75;5097643;28;1057;-35
2024/01/20 05:05:03;;;;;;;;;;;;;;;15.50;46.59;101037.03;5106174;28;1026;-35
2024/01/20 05:07:29;;;;;;;;;;;;;;;17.06;45.06;101038.34;5099304;28;1212;-36
2024/01/20 05:09:54;;;;;;;;;;;;;;;15.77;46.77;101038.88;5099110;28;963;-35
2024/01/20 05:12:20;;;;;;;;;;;;;;;15.51;46.19;101044.06;5097531;28;1065;-35
2024/01/20 05:14:45;;;;;;;;;;;;;;;15.34;45.50;101029.22;5092795;28;1057;-35
2024/01/20 05:17:11;;;;;;;;;;;;;;;15.86;46.28;101044.53;5111328;28;1984;-37
2024/01/20 05:19:39;;;;;;;;;;;;;;;16.53;45.55;101058.75;5110811;28;1018;-34
2024/01/20 05:22:05;;;;;;;;;;;;;;;16.02;47.46;101055.00;5117141;28;1216;-37
2024/01/20 05:24:30;;;;;;;;;;;;;;;16.24;46.18;101059.75;5117241;28;1015;-36
2024/01/20 05:26:56;;;;;;;;;;;;;;;16.00;46.76;101070.16;5109411;28;2093;-36
2024/01/20 05:29:21;;;;;;;;;;;;;;;15.82;47.06;101062.44;5098751;28;1102;-38
2024/01/20 05:31:47;;;;;;;;;;;;;;;15.65;47.07;101064.38;5104121;28;935;-36
2024/01/20 05:34:12;;;;;;;;;;;;;;;15.51;47.37;101059.97;5097234;28;1139;-35
2024/01/20 05:36:38;;;;;;;;;;;;;;;15.38;47.56;101069.66;5110061;28;1977;-34
2024/01/20 05:39:04;;;;;;;;;;;;;;;15.32;47.40;101081.47;5097513;28;1174;-36
2024/01/20 05:41:30;;;;;;;;;;;;;;;15.23;48.11;101095.31;5110106;28;1154;-35
2024/01/20 05:43:55;;;;;;;;;;;;;;;16.70;44.59;101108.06;5113755;28;1083;-36
2024/01/20 05:46:21;;;;;;;;;;;;;;;16.89;44.04;101107.66;5082564;28;1022;-38
2024/01/20 05:48:46;;;;;;;;;;;;;;;16.08;45.44;101112.16;5089710;28;1375;-37
2024/01/20 05:51:12;;;;;;;;;;;;;;;15.67;46.55;101098.75;5083687;28;1520;-36
2024/01/20 05:53:37;;;;;;;;;;;;;;;15.45;47.17;101117.84;5070501;28;1089;-35
2024/01/20 05:56:03;;;;;;;;;;;;;;;15.33;47.41;101114.97;5105463;28;1980;-35
2024/01/20 05:58:28;;;;;;;;;;;;;;;15.76;46.37;101111.44;5104302;28;1012;-35
2024/01/20 06:00:54;;;;;;;;;;;;;;;17.16;43.45;101102.38;5082174;28;1260;-37
2024/01/20 06:03:20;;;;;;;;;;;;;;;16.55;44.28;101101.13;5075826;28;1026;-38
2024/01/20 06:05:45;;;;;;;;;;;;;;;15.94;45.96;101100.59;5094503;28;1333;-36
2024/01/20 06:08:10;;;;;;;;;;;;;;;15.66;46.37;101097.88;5091426;28;1174;-37
2024/01/20 06:10:36;;;;;;;;;;;;;;;15.41;47.12;101088.84;5098598;28;985;-37
2024/01/20 06:13:02;;;;;;;;;;;;;;;16.51;44.79;101095.19;5114548;28;1074;-38
2024/01/20 06:15:27;;;;;;;;;;;;;;;17.29;42.62;101105.88;5104384;28;1983;-39
2024/01/20 06:17:53;;;;;;;;;;;;;;;16.28;44.93;101109.03;5087660;28;1055;-38
2024/01/20 06:20:19;;;;;;;;;;;;;;;15.79;45.93;101107.75;5082380;28;1261;-37
2024/01/20 06:22:45;;;;;;;;;;;;;;;15.58;46.34;101137.31;5083058;28;1035;-38
2024/01/20 06:25:10;;;;;;;;;;;;;;;15.39;46.68;101140.25;5075894;28;1097;-36
2024/01/20 06:27:36;;;;;;;;;;;;;;;16.42;44.70;101147.09;5075494;28;2247;-37
2024/01/20 06:30:03;;;;;;;;;;;;;;;17.11;42.84;101163.84;5082550;28;1043;-36
2024/01/20 06:32:29;;;;;;;;;;;;;;;16.20;44.93;101155.63;5107260;28;1201;-36
2024/01/20 06:34:54;;;;;;;;;;;;;;;15.74;46.16;101174.34;5114937;28;1913;-36
2024/01/20 06:37:20;;;;;;;;;;;;;;;15.49;46.81;101175.88;5105555;28;1002;-36
2024/01/20 06:39:46;;;;;;;;;;;;;;;15.29;46.99;101183.25;5095991;28;1010;-36
2024/01/20 06:42:12;;;;;;;;;;;;;;;16.70;44.20;101218.81;5105954;28;1081;-37
2024/01/20 06:44:37;;;;;;;;;;;;;;;17.28;42.56;101223.84;5115164;28;1055;-41
2024/01/20 06:47:03;;;;;;;;;;;;;;;16.32;44.64;101245.09;5105601;28;1115;-37
2024/01/20 06:49:29;;;;;;;;;;;;;;;15.83;45.79;101225.13;5109561;28;1162;-38
2024/01/20 06:51:54;;;;;;;;;;;;;;;15.56;46.47;101237.34;5107052;28;1010;-39
2024/01/20 06:54:20;;;;;;;;;;;;;;;15.37;46.58;101259.66;5111587;28;1073;-43
2024/01/20 06:56:45;;;;;;;;;;;;;;;16.25;45.17;101249.06;5086455;28;1979;-38
2024/01/20 06:59:11;;;;;;;;;;;;;;;17.41;42.24;101266.38;5078495;28;1031;-41
2024/01/20 07:01:37;;;;;;;;;;;;;;;16.45;44.15;101274.34;5095849;28;1312;-38
2024/01/20 07:04:03;;;;;;;;;;;;;;;15.94;45.29;101277.50;5095793;28;1102;-37
2024/01/20 07:06:28;;;;;;;;;;;;;;;15.60;46.02;101283.09;5092173;28;1099;-39
2024/01/20 07:08:54;;;;;;;;;;;;;;;15.43;46.47;101291.09;5107030;28;1193;-38
2024/01/20 07:11:20;;;;;;;;;;;;;;;16.00;45.75;101299.25;5101927;28;1045;-38
2024/01/20 07:13:46;;;;;;;;;;;;;;;17.25;42.64;101280.72;5103236;28;1048;-37
2024/01/20 07:16:12;;;;;;;;;;;;;;;16.61;43.67;101286.66;5090200;28;1980;-39
2024/01/20 07:18:38;;;;;;;;;;;;;;;16.03;45.16;101275.16;5101553;28;1093;-38
2024/01/20 07:21:04;;;;;;;;;;;;;;;15.63;46.08;101265.16;5115608;28;982;-40
2024/01/20 07:23:30;;;;;;;;;;;;;;;15.43;46.42;101277.84;5102295;28;1002;-37
2024/01/20 07:25:55;;;;;;;;;;;;;;;15.71;45.97;101279.78;5100673;28;1808;-38
2024/01/20 07:28:21;;;;;;;;;;;;;;;17.13;42.74;101282.38;5083053;28;991;-41
2024/01/20 07:30:46;;;;;;;;;;;;;;;17.04;42.85;101271.50;5108206;28;996;-41
2024/01/20 07:33:12;;;;;;;;;;;;;;;16.14;44.81;101273.66;5104878;28;1002;-41
2024/01/20 07:35:38;;;;;;;;;;;;;;;15.77;45.78;101279.41;5096579;28;1905;-38
2024/01/20 07:38:03;;;;;;;;;;;;;;;15.52;46.45;101272.94;5084745;28;1019;-44
2024/01/20 07:40:29;;;;;;;;;;;;;;;15.76;46.01;101275.06;5108408;28;1073;-37
2024/01/20 07:42:55;;;;;;;;;;;;;;;17.20;42.67;101282.81;5086809;28;987;-38
2024/01/20 07:45:20;;;;;;;;;;;;;;;16.59;43.59;101276.13;5078361;28;1507;-38
2024/01/20 07:47:46;;;;;;;;;;;;;;;15.97;45.04;101282.63;5094122;28;1125;-40
2024/01/20 07:50:12;;;;;;;;;;;;;;;15.66;46.01;101261.50;5100532;28;1150;-38
2024/01/20 07:52:38;;;;;;;;;;;;;;;15.45;46.55;101274.25;5089002;28;1436;-38
2024/01/20 07:55:04;;;;;;;;;;;;;;;16.87;43.26;101274.31;5079971;28;1910;-39
2024/01/20 07:57:29;;;;;;;;;;;;;;;17.05;42.63;101286.50;5106820;28;2232;-41
2024/01/20 07:59:55;;;;;;;;;;;;;;;16.22;44.57;101287.28;5119583;28;1096;-42
2024/01/20 08:02:20;;;;;;;;;;;;;;;15.76;45.47;101304.22;5118452;28;1026;-38
2024/01/20 08:04:46;;;;;;;;;;;;;;;15.55;45.89;101299.25;5078575;28;1019;-39
2024/01/20 08:07:11;;;;;;;;;;;;;;;15.33;46.47;101303.19;5095565;28;1181;-40
2024/01/20 08:09:37;;;;;;;;;;;;;;;16.24;44.68;101300.47;5091891;28;1138;-40
2024/01/20 08:12:02;;;;;;;;;;;;;;;17.38;42.00;101303.84;5088857;28;1300;-40
2024/01/20 08:14:28;;;;;;;;;;;;;;;16.51;43.60;101307.66;5095632;28;1019;-40
2024/01/20 08:16:54;;;;;;;;;;;;;;;15.87;45.00;101322.13;5115422;28;1905;-38
2024/01/20 08:19:19;;;;;;;;;;;;;;;15.60;45.83;101342.28;5108938;28;914;-39
2024/01/20 08:21:44;;;;;;;;;;;;;;;15.38;46.32;101351.47;5095984;28;1352;-38
2024/01/20 08:24:10;;;;;;;;;;;;;;;16.71;43.78;101358.63;5097447;28;1359;-38
2024/01/20 08:26:36;;;;;;;;;;;;;;;17.27;42.14;101363.03;5097718;28;1900;-40
2024/01/20 08:29:01;;;;;;;;;;;;;;;16.22;44.26;101364.28;5097656;28;1280;-39
2024/01/20 08:31:27;;;;;;;;;;;;;;;15.89;45.03;101384.78;5084919;28;1053;-37
2024/01/20 08:33:53;;;;;;;;;;;;;;;15.53;46.13;101384.22;5090259;28;1258;-37
2024/01/20 08:36:20;;;;;;;;;;;;;;;15.37;46.58;101386.91;5078873;28;1910;-39
2024/01/20 08:38:45;;;;;;;;;;;;;;;16.12;45.00;101392.31;5078039;28;1268;-37
2024/01/20 08:41:11;;;;;;;;;;;;;;;17.29;42.42;101392.19;5097070;28;1317;-37
2024/01/20 08:43:39;;;;;;;;;;;;;;;16.47;43.93;101399.94;5109108;28;1090;-37
2024/01/20 08:46:05;;;;;;;;;;;;;;;15.93;45.12;101397.88;5097685;28;1387;-37
2024/01/20 08:48:30;;;;;;;;;;;;;;;15.60;45.73;101411.22;5097392;28;1292;-37
2024/01/20 08:50:56;;;;;;;;;;;;;;;15.38;46.14;101395.72;5097690;28;1260;-37
2024/01/20 08:53:21;;;;;;;;;;;;;;;16.28;44.39;101405.53;5084281;28;1193;-38
2024/01/20 08:55:47;;;;;;;;;;;;;;;17.36;41.83;101407.66;5095445;28;1946;-37
2024/01/20 08:58:12;;;;;;;;;;;;;;;16.38;43.92;101421.75;5077222;28;1001;-37
2024/01/20 09:00:38;;;;;;;;;;;;;;;15.80;45.35;101403.88;5089975;28;1109;-39
2024/01/20 09:03:03;;;;;;;;;;;;;;;15.54;46.09;101412.44;5077777;28;1332;-37
2024/01/20 09:05:29;;;;;;;;;;;;;;;15.33;46.16;101417.16;5097116;28;1006;-40
2024/01/20 09:07:54;;;;;;;;;;;;;;;16.49;44.19;101408.66;5110285;28;1063;-36
2024/01/20 09:10:20;;;;;;;;;;;;;;;17.06;42.21;101408.69;5086972;28;1011;-38
2024/01/20 09:12:45;;;;;;;;;;;;;;;16.13;44.24;101415.28;5090966;28;1288;-39
2024/01/20 09:15:11;;;;;;;;;;;;;;;15.72;45.52;101420.28;5090755;28;1973;-37
2024/01/20 09:17:37;;;;;;;;;;;;;;;15.58;45.82;101423.72;5093649;28;1160;-39
2024/01/20 09:20:03;;;;;;;;;;;;;;;15.26;46.63;101423.78;5096907;28;1350;-37
2024/01/20 09:22:28;;;;;;;;;;;;;;;16.68;43.50;101425.25;5097001;28;1034;-37
2024/01/20 09:24:54;;;;;;;;;;;;;;;17.17;42.13;101431.06;5096464;28;1476;-37
2024/01/20 09:27:22;;;;;;;;;;;;;;;16.18;44.03;101426.47;5094506;28;2180;-36
2024/01/20 09:29:48;;;;;;;;;;;;;;;15.78;45.36;101435.00;5083661;28;1237;-39
2024/01/20 09:32:13;;;;;;;;;;;;;;;15.53;45.46;101423.16;5096661;28;1343;-36
2024/01/20 09:34:39;;;;;;;;;;;;;;;16.38;44.19;101419.94;5089797;28;1237;-36
2024/01/20 09:37:04;;;;;;;;;;;;;;;17.28;42.06;101428.59;5090439;28;1983;-36
2024/01/20 09:39:30;;;;;;;;;;;;;;;16.33;43.82;101442.41;5088762;28;1276;-37
2024/01/20 09:41:56;;;;;;;;;;;;;;;15.93;45.00;101438.53;5089562;28;1313;-36
2024/01/20 09:44:21;;;;;;;;;;;;;;;15.64;45.38;101420.72;5090310;28;1291;-36
2024/01/20 09:46:47;;;;;;;;;;;;;;;15.37;45.90;101434.63;5096003;28;1094;-36
2024/01/20 09:49:12;;;;;;;;;;;;;;;16.57;43.64;101432.06;5078143;28;1304;-37
2024/01/20 09:51:39;;;;;;;;;;;;;;;17.32;41.48;101424.75;5089351;28;1110;-38
2024/01/20 09:54:05;;;;;;;;;;;;;;;16.32;44.06;101438.91;5091729;28;1193;-39
2024/01/20 09:56:30;;;;;;;;;;;;;;;15.83;45.07;101437.38;5075366;28;1906;-37
2024/01/20 09:58:56;;;;;;;;;;;;;;;15.57;45.53;101450.31;5095550;28;1102;-37
2024/01/20 10:01:22;;;;;;;;;;;;;;;15.37;46.12;101442.56;5108331;28;982;-37
2024/01/20 10:03:47;;;;;;;;;;;;;;;16.80;42.98;101460.84;5111735;28;1128;-38
2024/01/20 10:06:13;;;;;;;;;;;;;;;17.20;41.81;101457.47;5106549;28;998;-38
2024/01/20 10:08:38;;;;;;;;;;;;;;;16.24;44.04;101463.28;5105389;28;1451;-36
2024/01/20 10:11:04;;;;;;;;;;;;;;;15.83;45.06;101458.59;5103111;28;1111;-36
2024/01/20 10:13:30;;;;;;;;;;;;;;;15.55;45.70;101461.88;5107589;28;998;-36
2024/01/20 10:15:55;;;;;;;;;;;;;;;15.40;46.10;101460.97;5112547;28;1909;-36
2024/01/20 10:18:21;;;;;;;;;;;;;;;16.45;43.73;101467.38;5107796;28;1162;-36
2024/01/20 10:20:46;;;;;;;;;;;;;;;17.44;41.37;101475.44;5078506;28;1140;-36
2024/01/20 10:23:12;;;;;;;;;;;;;;;16.51;43.36;101456.38;5095724;28;1010;-36
2024/01/20 10:25:38;;;;;;;;;;;;;;;15.93;44.36;101466.84;5107999;28;1974;-36
2024/01/20 10:28:03;;;;;;;;;;;;;;;15.54;45.68;101475.25;5095678;28;1093;-36
2024/01/20 10:30:30;;;;;;;;;;;;;;;15.43;45.78;101475.84;5109881;28;1067;-36
2024/01/20 10:32:55;;;;;;;;;;;;;;;16.45;43.67;101462.91;5104796;28;1159;-36
2024/01/20 10:35:21;;;;;;;;;;;;;;;17.40;41.32;101461.47;5113772;28;1901;-36
2024/01/20 10:37:50;;;;;;;;;;;;;;;16.43;43.52;101470.13;5096310;28;1046;-37
2024/01/20 10:40:16;;;;;;;;;;;;;;;15.89;44.89;101458.22;5098828;28;1122;-37
2024/01/20 10:42:42;;;;;;;;;;;;;;;15.58;45.20;101457.34;5116272;28;1093;-37
2024/01/20 10:45:08;;;;;;;;;;;;;;;15.62;45.79;101445.63;5102837;28;1145;-35
2024/01/20 10:47:37;;;;;;;;;;;;;;;17.13;42.22;101455.19;5089883;28;1300;-36
2024/01/20 10:50:03;;;;;;;;;;;;;;;16.86;42.27;101452.47;5105003;28;1006;-36
2024/01/20 10:52:30;;;;;;;;;;;;;;;16.03;44.20;101460.94;5113356;28;1230;-35
2024/01/20 10:54:55;;;;;;;;;;;;;;;15.72;44.98;101444.16;5078149;28;999;-40
2024/01/20 10:57:21;;;;;;;;;;;;;;;15.51;45.60;101460.38;5086256;28;2044;-37
2024/01/20 10:59:46;;;;;;;;;;;;;;;15.72;45.69;101465.38;5098379;28;1002;-37
2024/01/20 11:02:12;;;;;;;;;;;;;;;17.14;42.05;101456.06;5100231;28;1042;-38
2024/01/20 11:04:39;;;;;;;;;;;;;;;16.76;42.71;101466.34;5095942;28;1090;-36
2024/01/20 11:07:08;;;;;;;;;;;;;;;16.06;44.34;101470.53;5095831;28;1121;-38
2024/01/20 11:09:34;;;;;;;;;;;;;;;15.65;45.10;101474.59;5091118;28;888;-37
2024/01/20 11:12:00;;;;;;;;;;;;;;;15.40;45.86;101468.03;5105564;28;995;-40
2024/01/20 11:14:29;;;;;;;;;;;;;;;15.75;45.41;101470.50;5085781;28;966;-38
2024/01/20 11:16:56;;;;;;;;;;;;;;;17.18;42.00;101468.22;5095743;28;1996;-38
2024/01/20 11:19:22;;;;;;;;;;;;;;;16.76;42.78;101469.00;5095984;28;1157;-38
2024/01/20 11:21:47;;;;;;;;;;;;;;;16.00;44.41;101474.41;5099986;28;832;-40
2024/01/20 11:24:14;;;;;;;;;;;;;;;15.65;45.47;101471.97;5099640;28;979;-37
2024/01/20 11:26:40;;;;;;;;;;;;;;;15.47;45.75;101474.72;5099660;28;1911;-39
2024/01/20 11:29:06;;;;;;;;;;;;;;;16.71;43.24;101486.16;5099476;28;1010;-37
2024/01/20 11:31:32;;;;;;;;;;;;;;;17.10;41.91;101483.81;5099909;28;1026;-36
2024/01/20 11:33:59;;;;;;;;;;;;;;;16.14;43.72;101481.56;5103648;28;1000;-37
2024/01/20 11:36:32;;;;;;;;;;;;;;;15.75;44.97;101497.00;5108899;28;1914;-36
2024/01/20 11:38:57;;;;;;;;;;;;;;;15.55;45.08;101504.31;5105435;28;1008;-40
2024/01/20 11:41:23;;;;;;;;;;;;;;;15.62;45.61;101494.22;5105635;28;1102;-39
2024/01/20 11:43:49;;;;;;;;;;;;;;;17.05;42.19;101513.28;5119353;28;1005;-44
2024/01/20 11:46:15;;;;;;;;;;;;;;;17.05;41.73;101513.28;5113440;28;1017;-42
2024/01/20 11:48:42;;;;;;;;;;;;;;;16.21;43.63;101503.28;5081670;28;1201;-42
2024/01/20 11:51:07;;;;;;;;;;;;;;;15.78;44.73;101510.09;5105460;28;1038;-46
2024/01/20 11:53:33;;;;;;;;;;;;;;;15.49;45.56;101506.47;5106814;28;1005;-38
2024/01/20 11:55:59;;;;;;;;;;;;;;;15.93;44.89;101511.97;5109326;28;1902;-43
2024/01/20 11:58:25;;;;;;;;;;;;;;;16.86;41.71;101448.00;5094476;28;1087;-40
2024/01/20 12:00:51;;;;;;;;;;;;;;;16.62;42.88;101516.78;5092417;28;1153;-41
2024/01/20 12:03:17;;;;;;;;;;;;;;;15.98;44.16;101524.03;5101656;28;1077;-42
2024/01/20 12:05:43;;;;;;;;;;;;;;;15.66;45.15;101519.59;5085885;28;1179;-38
2024/01/20 12:08:08;;;;;;;;;;;;;;;15.41;45.67;101520.16;5096305;28;1158;-39
2024/01/20 12:10:34;;;;;;;;;;;;;;;16.75;42.66;101528.38;5106545;28;1106;-39
2024/01/20 12:13:02;;;;;;;;;;;;;;;17.25;41.42;101533.31;5105423;28;1220;-38
2024/01/20 12:15:36;;;;;;;;;;;;;;;16.30;43.32;101528.41;5118629;28;1894;-40
2024/01/20 12:18:02;;;;;;;;;;;;;;;15.82;44.53;101537.31;5105799;28;1074;-38
2024/01/20 12:20:28;;;;;;;;;;;;;;;15.58;45.21;101544.88;5119251;28;1023;-43
2024/01/20 12:22:57;;;;;;;;;;;;;;;15.48;45.53;101549.84;5118025;28;1022;-40
2024/01/20 12:25:25;;;;;;;;;;;;;;;17.00;42.20;101550.78;5109918;28;1121;-38
2024/01/20 12:27:51;;;;;;;;;;;;;;;17.05;41.73;101542.53;5109615;28;2537;-39
2024/01/20 12:30:16;;;;;;;;;;;;;;;16.16;43.86;101543.34;5108658;28;1010;-41
2024/01/20 12:32:41;;;;;;;;;;;;;;;15.69;44.77;101558.38;5113798;28;1093;-37
2024/01/20 12:35:07;;;;;;;;;;;;;;;15.54;45.36;101550.34;5119104;28;1905;-38
2024/01/20 12:37:33;;;;;;;;;;;;;;;16.26;43.68;101559.63;5105255;28;1149;-37
2024/01/20 12:39:58;;;;;;;;;;;;;;;17.35;41.49;101568.16;5084116;28;1355;-39